Time;durP1;ratioP1;P1;durP2;ratioP2;P2;SDS_P1;SDS_P2;PMS_P1;PMS_P2;Temp;Humidity;BMP_temperature;BMP_pressure;BME280_temperature;BME280_humidity;BME280_pressure;Samples;Min_cycle;Max_cycle;Signal;HPM_P1;HPM_P2
2023/12/22 00:01:41;;;;;;;12.10;2.20;;;;;;;-128.00;-1.00;-1.00;100268;1285;1002900;-36
2023/12/22 00:04:07;;;;;;;5.80;1.50;;;;;;;-128.00;-1.00;-1.00;100228;1283;1059754;-32
2023/12/22 00:06:33;;;;;;;7.80;2.30;;;;;;;-128.00;-1.00;-1.00;100169;1285;1002356;-29
2023/12/22 00:08:59;;;;;;;14.70;1.90;;;;;;;-128.00;-1.00;-1.00;100159;1286;1002965;-30
2023/12/22 00:11:24;;;;;;;11.70;2.20;;;;;;;-128.00;-1.00;-1.00;100188;1288;1002671;-31
2023/12/22 00:13:50;;;;;;;9.40;1.40;;;;;;;-128.00;-1.00;-1.00;100264;1284;1003832;-31
2023/12/22 00:16:16;;;;;;;7.60;1.60;;;;;;;-128.00;-1.00;-1.00;100231;1285;1003419;-32
2023/12/22 00:18:41;;;;;;;11.10;2.00;;;;;;;-128.00;-1.00;-1.00;100216;1283;1059285;-32
2023/12/22 00:21:11;;;;;;;7.80;2.10;;;;;;;-128.00;-1.00;-1.00;100291;1284;1002918;-31
2023/12/22 00:23:37;;;;;;;5.30;1.30;;;;;;;-128.00;-1.00;-1.00;100190;1285;1046736;-31
2023/12/22 00:26:03;;;;;;;10.20;1.70;;;;;;;-128.00;-1.00;-1.00;100238;1283;1004993;-30
2023/12/22 00:28:31;;;;;;;7.10;1.60;;;;;;;-128.00;-1.00;-1.00;100215;1285;1003707;-33
2023/12/22 00:30:58;;;;;;;6.90;2.00;;;;;;;-128.00;-1.00;-1.00;100144;1285;1003334;-30
2023/12/22 00:33:25;;;;;;;13.40;2.00;;;;;;;-128.00;-1.00;-1.00;100139;1286;1003266;-31
2023/12/22 00:35:51;;;;;;;14.80;1.30;;;;;;;-128.00;-1.00;-1.00;100206;1285;1003082;-31
2023/12/22 00:38:17;;;;;;;12.10;2.50;;;;;;;-128.00;-1.00;-1.00;100148;1288;1003001;-30
2023/12/22 00:40:43;;;;;;;8.50;1.90;;;;;;;-128.00;-1.00;-1.00;100170;1285;1002857;-30
2023/12/22 00:43:08;;;;;;;5.80;1.80;;;;;;;-128.00;-1.00;-1.00;100189;1284;1003311;-31
2023/12/22 00:45:34;;;;;;;3.90;1.40;;;;;;;-128.00;-1.00;-1.00;100180;1284;1004304;-30
2023/12/22 00:47:59;;;;;;;9.10;1.20;;;;;;;-128.00;-1.00;-1.00;100152;1283;1004068;-30
2023/12/22 00:50:25;;;;;;;10.60;1.80;;;;;;;-128.00;-1.00;-1.00;100275;1284;1003366;-31
2023/12/22 00:52:50;;;;;;;9.60;2.30;;;;;;;-128.00;-1.00;-1.00;100143;1284;1055289;-31
2023/12/22 00:55:16;;;;;;;7.50;1.20;;;;;;;-128.00;-1.00;-1.00;100028;1285;1003643;-31
2023/12/22 00:57:42;;;;;;;13.10;1.40;;;;;;;-128.00;-1.00;-1.00;100241;1284;1005246;-32
2023/12/22 01:00:11;;;;;;;8.00;1.20;;;;;;;-128.00;-1.00;-1.00;100184;1286;1004158;-31
2023/12/22 01:02:38;;;;;;;8.30;1.90;;;;;;;-128.00;-1.00;-1.00;100205;1285;1060931;-33
2023/12/22 01:05:04;;;;;;;6.30;1.40;;;;;;;-128.00;-1.00;-1.00;100251;1284;1003081;-31
2023/12/22 01:07:30;;;;;;;7.40;1.10;;;;;;;-128.00;-1.00;-1.00;100174;1288;1003527;-31
2023/12/22 01:10:01;;;;;;;5.90;0.90;;;;;;;-128.00;-1.00;-1.00;100115;1288;1003010;-34
2023/12/22 01:12:28;;;;;;;9.60;1.70;;;;;;;-128.00;-1.00;-1.00;100131;1286;1038452;-32
2023/12/22 01:14:54;;;;;;;9.90;1.70;;;;;;;-128.00;-1.00;-1.00;100169;1285;1002868;-31
2023/12/22 01:17:20;;;;;;;11.30;1.90;;;;;;;-128.00;-1.00;-1.00;100235;1284;1003743;-32
2023/12/22 01:19:47;;;;;;;15.00;2.00;;;;;;;-128.00;-1.00;-1.00;100244;1285;1002936;-32
2023/12/22 01:22:12;;;;;;;6.50;1.40;;;;;;;-128.00;-1.00;-1.00;100214;1286;1002928;-32
2023/12/22 01:24:40;;;;;;;11.90;2.30;;;;;;;-128.00;-1.00;-1.00;100215;1286;1038681;-33
2023/12/22 01:27:07;;;;;;;8.20;1.60;;;;;;;-128.00;-1.00;-1.00;100204;1283;1004824;-30
2023/12/22 01:29:32;;;;;;;10.90;2.70;;;;;;;-128.00;-1.00;-1.00;100203;1286;1003555;-32
2023/12/22 01:31:58;;;;;;;11.50;2.60;;;;;;;-128.00;-1.00;-1.00;100304;1286;1002970;-33
2023/12/22 01:34:23;;;;;;;8.20;2.30;;;;;;;-128.00;-1.00;-1.00;100268;1286;1002192;-31
2023/12/22 01:36:49;;;;;;;5.90;1.00;;;;;;;-128.00;-1.00;-1.00;100147;1285;1003992;-31
2023/12/22 01:39:15;;;;;;;;;;;;;;;-128.00;-1.00;-1.00;100258;1285;1004026;-31
2023/12/22 01:41:41;;;;;;;8.70;1.10;;;;;;;-128.00;-1.00;-1.00;100233;1285;1055189;-32
2023/12/22 01:44:06;;;;;;;3.50;1.20;;;;;;;-128.00;-1.00;-1.00;100154;1286;1002921;-31
2023/12/22 01:46:33;;;;;;;8.50;2.20;;;;;;;-128.00;-1.00;-1.00;100200;1285;1003043;-31
2023/12/22 01:49:01;;;;;;;9.80;2.40;;;;;;;-128.00;-1.00;-1.00;100272;1286;1046169;-31
2023/12/22 01:51:28;;;;;;;12.10;2.30;;;;;;;-128.00;-1.00;-1.00;100184;1285;1004171;-30
2023/12/22 02:34:08;;;;;;;7.50;1.30;;;;;;;3.13;95.51;96369.20;103705;1280;612878;-33
2023/12/22 02:36:34;;;;;;;9.10;1.50;;;;;;;3.71;91.47;96372.30;103873;1279;82258;-32
2023/12/22 02:39:00;;;;;;;10.90;1.20;;;;;;;3.90;89.20;96373.21;103831;1283;59230;-32
2023/12/22 02:41:26;;;;;;;6.80;1.70;;;;;;;3.90;87.38;96367.49;103929;1282;59952;-32
2023/12/22 02:43:51;;;;;;;8.60;1.70;;;;;;;3.81;87.44;96377.33;103981;1283;59439;-31
2023/12/22 02:46:17;;;;;;;5.50;1.10;;;;;;;3.89;86.86;96382.58;103902;1282;59336;-31
2023/12/22 02:48:42;;;;;;;6.80;1.50;;;;;;;3.91;85.13;96379.61;103850;1284;59333;-33
2023/12/22 02:51:08;;;;;;;10.80;2.40;;;;;;;4.05;84.26;96373.30;104006;1282;59378;-30
2023/12/22 02:53:33;;;;;;;8.10;2.00;;;;;;;4.24;82.90;96377.57;103930;1282;59331;-31
2023/12/22 02:55:59;;;;;;;4.80;1.00;;;;;;;4.04;83.02;96370.83;104003;1282;59397;-31
2023/12/22 02:58:25;;;;;;;9.30;2.20;;;;;;;3.95;83.55;96353.30;103838;1283;59822;-31
2023/12/22 03:00:50;;;;;;;5.60;1.30;;;;;;;4.06;82.00;96365.09;103849;1282;59758;-32
2023/12/22 03:03:16;;;;;;;7.10;2.10;;;;;;;4.03;81.34;96359.86;103804;1281;59838;-30
2023/12/22 03:05:41;;;;;;;10.70;2.30;;;;;;;3.94;81.41;96369.80;103750;1282;59680;-32
2023/12/22 03:08:07;;;;;;;14.00;2.50;;;;;;;3.89;81.22;96369.09;104012;1282;59675;-37
2023/12/22 03:10:33;;;;;;;8.40;1.60;;;;;;;3.88;80.74;96377.02;103911;1282;68465;-33
2023/12/22 03:12:58;;;;;;;7.30;2.30;;;;;;;3.98;80.15;96375.45;103847;1285;59720;-32
2023/12/22 03:15:24;;;;;;;10.80;1.60;;;;;;;3.96;79.91;96364.95;103953;1283;59756;-30
2023/12/22 03:17:49;;;;;;;8.40;0.80;;;;;;;3.92;80.50;96357.09;103916;1281;59695;-30
2023/12/22 03:20:15;;;;;;;8.80;1.10;;;;;;;3.88;81.15;96354.25;104012;1281;59761;-30
2023/12/22 03:22:40;;;;;;;10.50;2.20;;;;;;;3.86;81.70;96372.58;103964;1282;59778;-32
2023/12/22 03:25:06;;;;;;;7.40;0.90;;;;;;;3.92;81.85;96365.88;103768;1283;72768;-30
2023/12/22 03:27:32;;;;;;;7.60;1.90;;;;;;;3.93;82.48;96368.06;103819;1285;59711;-32
2023/12/22 03:29:58;;;;;;;4.50;1.30;;;;;;;4.04;82.18;96374.02;103960;1284;59758;-32
2023/12/22 03:32:23;;;;;;;15.30;2.00;;;;;;;4.10;81.62;96387.77;103948;1284;59851;-32
2023/12/22 03:34:49;;;;;;;5.60;1.40;;;;;;;3.95;81.88;96401.61;103832;1283;59762;-32
2023/12/22 03:37:15;;;;;;;8.00;1.90;;;;;;;-75.25;32.29;38561.07;101773;1282;1002737;-31
2023/12/22 03:39:42;;;;;;;4.70;1.30;;;;;;;-128.00;-1.00;-1.00;100271;1282;1004762;-33
2023/12/22 03:42:07;;;;;;;9.80;1.20;;;;;;;-128.00;-1.00;-1.00;100326;1285;1045620;-32
2023/12/22 03:44:33;;;;;;;5.40;0.70;;;;;;;-128.00;-1.00;-1.00;100442;1281;1004616;-31
2023/12/22 03:46:58;;;;;;;7.00;1.30;;;;;;;-128.00;-1.00;-1.00;100276;1281;1004687;-33
2023/12/22 03:49:24;;;;;;;6.50;1.60;;;;;;;-128.00;-1.00;-1.00;100274;1284;1004742;-32
2023/12/22 03:51:50;;;;;;;9.20;1.50;;;;;;;-128.00;-1.00;-1.00;100293;1284;1004354;-31
2023/12/22 03:54:17;;;;;;;4.40;1.20;;;;;;;-128.00;-1.00;-1.00;100434;1282;1004625;-33
2023/12/22 03:56:43;;;;;;;6.40;1.00;;;;;;;-128.00;-1.00;-1.00;100239;1282;1059786;-33
2023/12/22 03:59:08;;;;;;;7.00;1.30;;;;;;;-128.00;-1.00;-1.00;100312;1282;1004146;-32
2023/12/22 04:01:34;;;;;;;5.30;1.20;;;;;;;-128.00;-1.00;-1.00;100201;1281;1004688;-32
2023/12/22 04:03:59;;;;;;;5.00;1.40;;;;;;;-128.00;-1.00;-1.00;100241;1285;1045606;-34
2023/12/22 04:06:26;;;;;;;7.30;1.80;;;;;;;-128.00;-1.00;-1.00;100303;1282;1004281;-32
2023/12/22 04:08:52;;;;;;;8.00;1.20;;;;;;;-128.00;-1.00;-1.00;100220;1283;1003833;-32
2023/12/22 04:11:17;;;;;;;11.70;1.50;;;;;;;-128.00;-1.00;-1.00;100303;1282;1004459;-32
2023/12/22 04:13:43;;;;;;;4.50;1.30;;;;;;;-128.00;-1.00;-1.00;100429;1282;1004016;-31
2023/12/22 04:16:08;;;;;;;3.50;1.30;;;;;;;-128.00;-1.00;-1.00;100292;1285;1004571;-32
2023/12/22 04:18:34;;;;;;;5.80;1.50;;;;;;;-128.00;-1.00;-1.00;100125;1282;1004866;-31
2023/12/22 04:20:59;;;;;;;7.60;1.10;;;;;;;-128.00;-1.00;-1.00;100194;1282;1004736;-32
2023/12/22 04:23:25;;;;;;;10.70;1.80;;;;;;;-128.00;-1.00;-1.00;100195;1282;1014188;-34
2023/12/22 04:25:51;;;;;;;13.80;1.40;;;;;;;-128.00;-1.00;-1.00;100325;1282;1004381;-32
2023/12/22 04:28:16;;;;;;;9.00;1.20;;;;;;;-128.00;-1.00;-1.00;100397;1282;1003841;-32
2023/12/22 04:30:42;;;;;;;5.10;1.50;;;;;;;-128.00;-1.00;-1.00;100340;1282;1004654;-31
2023/12/22 04:33:07;;;;;;;7.30;1.50;;;;;;;-128.00;-1.00;-1.00;100162;1282;1004896;-32
2023/12/22 04:35:33;;;;;;;7.20;1.00;;;;;;;-128.00;-1.00;-1.00;100222;1285;1004469;-33
2023/12/22 04:37:59;;;;;;;6.20;1.10;;;;;;;-128.00;-1.00;-1.00;100375;1282;1004482;-32
2023/12/22 04:40:25;;;;;;;8.90;1.40;;;;;;;-128.00;-1.00;-1.00;100370;1283;1004271;-30
2023/12/22 04:42:51;;;;;;;;;;;;;;;-128.00;-1.00;-1.00;100183;1283;1059572;-30
2023/12/22 04:45:17;;;;;;;6.00;0.50;;;;;;;-128.00;-1.00;-1.00;100390;1282;1005333;-33
2023/12/22 04:47:42;;;;;;;8.20;1.50;;;;;;;-128.00;-1.00;-1.00;100262;1285;1003746;-32
2023/12/22 04:50:08;;;;;;;6.30;1.10;;;;;;;-128.00;-1.00;-1.00;100282;1282;1059539;-32
2023/12/22 04:52:34;;;;;;;9.10;1.10;;;;;;;-128.00;-1.00;-1.00;100261;1281;1004452;-32
2023/12/22 04:54:59;;;;;;;8.40;1.30;;;;;;;-128.00;-1.00;-1.00;100283;1283;1004631;-32
2023/12/22 04:57:25;;;;;;;8.00;1.40;;;;;;;-128.00;-1.00;-1.00;100272;1285;1004280;-33
2023/12/22 04:59:50;;;;;;;7.20;1.00;;;;;;;-128.00;-1.00;-1.00;100382;1282;1004318;-32
2023/12/22 05:02:16;;;;;;;6.90;0.70;;;;;;;-128.00;-1.00;-1.00;100192;1282;1004741;-34
2023/12/22 05:04:42;;;;;;;7.60;1.60;;;;;;;-128.00;-1.00;-1.00;100208;1282;1004260;-31
2023/12/22 05:07:07;;;;;;;5.00;1.10;;;;;;;-128.00;-1.00;-1.00;100298;1282;1005166;-32
2023/12/22 05:09:33;;;;;;;5.80;1.00;;;;;;;-128.00;-1.00;-1.00;100363;1282;1047428;-35
2023/12/22 05:11:59;;;;;;;;;;;;;;;-128.00;-1.00;-1.00;100222;1282;1004649;-38
2023/12/22 05:14:24;;;;;;;5.00;1.20;;;;;;;-128.00;-1.00;-1.00;100337;1283;1004499;-31
2023/12/22 05:16:54;;;;;;;9.70;1.40;;;;;;;-128.00;-1.00;-1.00;100189;1283;1005133;-30
2023/12/22 05:19:21;;;;;;;9.20;0.90;;;;;;;-128.00;-1.00;-1.00;100191;1282;1045436;-32
2023/12/22 05:21:46;;;;;;;3.30;1.00;;;;;;;-128.00;-1.00;-1.00;100417;1281;1004383;-33
2023/12/22 05:24:12;;;;;;;8.00;1.90;;;;;;;-128.00;-1.00;-1.00;100194;1282;1004767;-32
2023/12/22 05:26:38;;;;;;;4.60;0.90;;;;;;;-128.00;-1.00;-1.00;100283;1282;1004564;-31
2023/12/22 05:29:03;;;;;;;11.70;1.90;;;;;;;-128.00;-1.00;-1.00;100225;1282;1004566;-32
2023/12/22 05:31:30;;;;;;;5.40;1.40;;;;;;;-128.00;-1.00;-1.00;100294;1283;1004649;-32
2023/12/22 05:33:56;;;;;;;5.60;1.30;;;;;;;-128.00;-1.00;-1.00;100248;1282;1004488;-32
2023/12/22 05:36:22;;;;;;;4.10;0.90;;;;;;;-128.00;-1.00;-1.00;100208;1283;1004025;-30
2023/12/22 05:38:47;;;;;;;11.90;1.30;;;;;;;-128.00;-1.00;-1.00;100238;1282;1004274;-36
2023/12/22 05:41:13;;;;;;;5.80;1.00;;;;;;;-128.00;-1.00;-1.00;100291;1283;1004162;-30
2023/12/22 05:43:39;;;;;;;8.00;1.30;;;;;;;-128.00;-1.00;-1.00;100402;1281;1004802;-31
2023/12/22 05:46:04;;;;;;;9.70;1.40;;;;;;;-128.00;-1.00;-1.00;100336;1282;1004442;-33
2023/12/22 05:48:30;;;;;;;8.00;1.80;;;;;;;-128.00;-1.00;-1.00;100336;1282;1004497;-32
2023/12/22 05:50:56;;;;;;;5.10;1.70;;;;;;;-128.00;-1.00;-1.00;100302;1283;1004667;-30
2023/12/22 05:53:22;;;;;;;6.20;1.20;;;;;;;-128.00;-1.00;-1.00;100266;1282;1004688;-32
2023/12/22 05:55:48;;;;;;;6.40;1.60;;;;;;;-128.00;-1.00;-1.00;100254;1285;1004680;-32
2023/12/22 05:58:14;;;;;;;8.40;1.30;;;;;;;-128.00;-1.00;-1.00;100104;1282;1059718;-30
2023/12/22 06:00:39;;;;;;;6.80;1.40;;;;;;;-128.00;-1.00;-1.00;100463;1282;1004723;-32
2023/12/22 06:03:05;;;;;;;8.40;1.80;;;;;;;-128.00;-1.00;-1.00;100222;1281;1004753;-32
2023/12/22 06:05:31;;;;;;;4.90;1.00;;;;;;;-128.00;-1.00;-1.00;100275;1285;1045825;-33
2023/12/22 06:07:56;;;;;;;5.40;1.10;;;;;;;-128.00;-1.00;-1.00;100354;1281;1004842;-34
2023/12/22 06:10:23;;;;;;;6.40;1.40;;;;;;;-128.00;-1.00;-1.00;100284;1281;1004296;-33
2023/12/22 06:12:48;;;;;;;9.80;1.10;;;;;;;-128.00;-1.00;-1.00;100035;1282;1003870;-32
2023/12/22 06:15:14;;;;;;;7.70;1.60;;;;;;;-128.00;-1.00;-1.00;100223;1282;1004687;-30
2023/12/22 06:17:40;;;;;;;14.30;2.20;;;;;;;-128.00;-1.00;-1.00;100178;1283;1046896;-32
2023/12/22 06:20:06;;;;;;;5.00;1.30;;;;;;;-128.00;-1.00;-1.00;100412;1283;1005026;-34
2023/12/22 06:22:32;;;;;;;14.10;1.20;;;;;;;-128.00;-1.00;-1.00;100327;1283;1059231;-34
2023/12/22 06:24:58;;;;;;;4.30;1.40;;;;;;;-128.00;-1.00;-1.00;100202;1282;1004736;-32
2023/12/22 06:27:23;;;;;;;;;;;;;;;-128.00;-1.00;-1.00;100191;1283;1004550;-31
2023/12/22 06:29:49;;;;;;;11.40;3.70;;;;;;;-128.00;-1.00;-1.00;100454;1282;1003636;-32
2023/12/22 06:32:17;;;;;;;9.80;2.90;;;;;;;-128.00;-1.00;-1.00;100405;1283;1056325;-35
2023/12/22 06:34:42;;;;;;;3.40;1.20;;;;;;;-128.00;-1.00;-1.00;100242;1285;1004480;-29
2023/12/22 06:37:08;;;;;;;8.60;1.30;;;;;;;-128.00;-1.00;-1.00;100140;1281;1005062;-29
2023/12/22 06:39:34;;;;;;;12.90;2.30;;;;;;;-128.00;-1.00;-1.00;100356;1284;1004387;-32
2023/12/22 06:41:59;;;;;;;5.80;1.10;;;;;;;-128.00;-1.00;-1.00;100314;1282;1061289;-32
2023/12/22 06:44:26;;;;;;;6.50;1.70;;;;;;;-128.00;-1.00;-1.00;100234;1282;1005209;-31
2023/12/22 06:46:52;;;;;;;10.20;2.50;;;;;;;-128.00;-1.00;-1.00;100137;1281;1014683;-34
2023/12/22 06:49:18;;;;;;;10.30;3.60;;;;;;;-128.00;-1.00;-1.00;100341;1281;1003514;-31
2023/12/22 06:51:43;;;;;;;6.70;1.40;;;;;;;-128.00;-1.00;-1.00;100377;1281;1003881;-31
2023/12/22 06:54:09;;;;;;;5.80;1.70;;;;;;;-128.00;-1.00;-1.00;100302;1281;1004563;-31
2023/12/22 06:56:35;;;;;;;8.00;1.50;;;;;;;-128.00;-1.00;-1.00;100257;1282;1059099;-30
2023/12/22 06:59:02;;;;;;;6.40;1.00;;;;;;;-128.00;-1.00;-1.00;100250;1281;1004425;-30
2023/12/22 07:01:31;;;;;;;5.90;1.50;;;;;;;-128.00;-1.00;-1.00;100397;1284;1004950;-31
2023/12/22 07:03:57;;;;;;;9.50;1.70;;;;;;;-128.00;-1.00;-1.00;100306;1282;1046193;-34
2023/12/22 07:06:23;;;;;;;;;;;;;;;-128.00;-1.00;-1.00;100402;1281;1004699;-31
2023/12/22 07:09:12;;;;;;;5.00;2.10;;;;;;;-128.00;-1.00;-1.00;100274;1282;1004573;-31
2023/12/22 07:11:38;;;;;;;10.60;1.70;;;;;;;-128.00;-1.00;-1.00;100355;1283;1059341;-31
2023/12/22 07:14:04;;;;;;;10.30;1.40;;;;;;;-128.00;-1.00;-1.00;100201;1281;1003766;-31
2023/12/22 07:16:29;;;;;;;6.20;1.80;;;;;;;-128.00;-1.00;-1.00;100291;1282;1004259;-31
2023/12/22 07:18:55;;;;;;;4.60;1.90;;;;;;;-128.00;-1.00;-1.00;100230;1281;1004189;-32
2023/12/22 07:21:21;;;;;;;4.60;0.80;;;;;;;-128.00;-1.00;-1.00;100369;1282;1004903;-32
2023/12/22 07:23:47;;;;;;;5.80;1.10;;;;;;;-128.00;-1.00;-1.00;100293;1283;1014485;-32
2023/12/22 07:26:12;;;;;;;9.00;1.30;;;;;;;-128.00;-1.00;-1.00;100282;1284;1004535;-32
2023/12/22 07:28:38;;;;;;;7.00;1.00;;;;;;;-128.00;-1.00;-1.00;100326;1283;1059955;-35
2023/12/22 07:31:05;;;;;;;6.20;0.80;;;;;;;-128.00;-1.00;-1.00;100249;1282;1004231;-31
2023/12/22 07:33:31;;;;;;;6.00;1.10;;;;;;;-128.00;-1.00;-1.00;100259;1283;1003942;-32
2023/12/22 07:35:57;;;;;;;5.70;1.20;;;;;;;-128.00;-1.00;-1.00;100400;1282;1004816;-31
2023/12/22 07:38:23;;;;;;;7.60;1.70;;;;;;;-128.00;-1.00;-1.00;100417;1283;1003946;-30
2023/12/22 07:40:49;;;;;;;6.30;1.00;;;;;;;-128.00;-1.00;-1.00;100252;1281;1060789;-32
2023/12/22 07:43:15;;;;;;;9.00;1.70;;;;;;;-128.00;-1.00;-1.00;100228;1282;1004102;-30
2023/12/22 07:45:41;;;;;;;12.40;2.50;;;;;;;-128.00;-1.00;-1.00;100205;1283;1004419;-32
2023/12/22 07:48:06;;;;;;;8.00;2.50;;;;;;;-128.00;-1.00;-1.00;100281;1283;1004901;-31
2023/12/22 07:50:33;;;;;;;8.90;2.20;;;;;;;-128.00;-1.00;-1.00;100258;1282;1047065;-31
2023/12/22 07:52:58;;;;;;;;;;;;;;;-128.00;-1.00;-1.00;100490;1282;1004714;-30
2023/12/22 07:55:24;;;;;;;5.10;1.50;;;;;;;-128.00;-1.00;-1.00;100296;1283;1004674;-32
2023/12/22 07:57:50;;;;;;;7.90;2.40;;;;;;;-128.00;-1.00;-1.00;100337;1282;1004619;-32
2023/12/22 08:00:17;;;;;;;6.80;1.10;;;;;;;-128.00;-1.00;-1.00;100398;1285;1044791;-34
2023/12/22 08:02:43;;;;;;;6.90;2.20;;;;;;;-128.00;-1.00;-1.00;100208;1282;1005210;-32
2023/12/22 08:05:09;;;;;;;4.90;1.90;;;;;;;-128.00;-1.00;-1.00;100210;1282;1004915;-33
2023/12/22 08:07:35;;;;;;;8.70;2.40;;;;;;;-128.00;-1.00;-1.00;100265;1282;1004435;-32
2023/12/22 08:10:02;;;;;;;5.70;1.70;;;;;;;-128.00;-1.00;-1.00;100478;1284;1014633;-32
2023/12/22 08:12:28;;;;;;;6.60;1.80;;;;;;;-128.00;-1.00;-1.00;100309;1282;1003735;-37
2023/12/22 08:14:53;;;;;;;;;;;;;;;-128.00;-1.00;-1.00;100347;1282;1004914;-32
2023/12/22 08:17:19;;;;;;;6.20;1.80;;;;;;;-128.00;-1.00;-1.00;100346;1283;1004842;-32
2023/12/22 08:19:45;;;;;;;3.90;1.50;;;;;;;-128.00;-1.00;-1.00;100181;1280;1059187;-30
2023/12/22 08:22:13;;;;;;;5.70;1.20;;;;;;;-128.00;-1.00;-1.00;100413;1283;1004390;-32
2023/12/22 08:24:39;;;;;;;2.90;0.70;;;;;;;-128.00;-1.00;-1.00;100163;1282;1004549;-34
2023/12/22 08:27:06;;;;;;;5.40;0.90;;;;;;;-128.00;-1.00;-1.00;100350;1282;1005078;-32
2023/12/22 08:29:32;;;;;;;6.10;1.50;;;;;;;-128.00;-1.00;-1.00;100110;1282;1004382;-32
2023/12/22 08:31:58;;;;;;;;;;;;;;;-128.00;-1.00;-1.00;100331;1282;1003247;-33
2023/12/22 08:34:24;;;;;;;4.90;0.80;;;;;;;-128.00;-1.00;-1.00;100276;1282;1004185;-33
2023/12/22 08:36:50;;;;;;;3.50;1.00;;;;;;;-128.00;-1.00;-1.00;100235;1285;1044928;-32
2023/12/22 08:39:15;;;;;;;4.90;1.60;;;;;;;-128.00;-1.00;-1.00;100222;1283;1004956;-31
2023/12/22 08:41:41;;;;;;;6.20;1.40;;;;;;;-128.00;-1.00;-1.00;100422;1285;1004832;-31
2023/12/22 08:44:07;;;;;;;4.90;0.50;;;;;;;-128.00;-1.00;-1.00;100241;1282;1059407;-33
2023/12/22 08:46:33;;;;;;;4.50;1.40;;;;;;;-128.00;-1.00;-1.00;100304;1282;1005153;-33
2023/12/22 08:48:59;;;;;;;5.90;1.10;;;;;;;-128.00;-1.00;-1.00;100290;1281;1004359;-31
2023/12/22 08:51:26;;;;;;;2.60;0.90;;;;;;;-128.00;-1.00;-1.00;100228;1282;1003624;-31
2023/12/22 08:53:54;;;;;;;5.30;1.20;;;;;;;-128.00;-1.00;-1.00;100228;1282;1057142;-32
2023/12/22 08:56:21;;;;;;;5.90;1.40;;;;;;;-128.00;-1.00;-1.00;100266;1282;1058792;-32
2023/12/22 08:58:47;;;;;;;4.30;0.90;;;;;;;-128.00;-1.00;-1.00;100271;1283;1004208;-29
2023/12/22 09:01:16;;;;;;;3.10;1.20;;;;;;;-128.00;-1.00;-1.00;100199;1282;1004633;-32
2023/12/22 09:03:45;;;;;;;2.70;0.90;;;;;;;-128.00;-1.00;-1.00;100302;1283;1047914;-33
2023/12/22 09:06:15;;;;;;;1.90;0.60;;;;;;;-128.00;-1.00;-1.00;100244;1281;1060539;-32
2023/12/22 09:08:42;;;;;;;5.80;1.50;;;;;;;-128.00;-1.00;-1.00;100276;1283;1057006;-30
2023/12/22 09:11:08;;;;;;;5.20;1.30;;;;;;;-128.00;-1.00;-1.00;100341;1282;1004473;-32
2023/12/22 09:13:35;;;;;;;1.90;0.80;;;;;;;-128.00;-1.00;-1.00;100256;1283;1003960;-30
2023/12/22 09:16:02;;;;;;;4.60;1.00;;;;;;;-128.00;-1.00;-1.00;100200;1285;1004267;-31
2023/12/22 09:18:28;;;;;;;8.00;1.80;;;;;;;-128.00;-1.00;-1.00;100343;1283;1004001;-31
2023/12/22 09:20:54;;;;;;;4.30;1.10;;;;;;;-128.00;-1.00;-1.00;100283;1282;1005059;-32
2023/12/22 09:23:21;;;;;;;6.30;1.40;;;;;;;-128.00;-1.00;-1.00;100424;1283;1004980;-32
2023/12/22 09:25:46;;;;;;;13.00;3.00;;;;;;;-128.00;-1.00;-1.00;100214;1283;1014556;-37
2023/12/22 09:28:12;;;;;;;5.20;1.40;;;;;;;-128.00;-1.00;-1.00;100213;1283;1004321;-31
2023/12/22 09:30:38;;;;;;;1.90;1.00;;;;;;;-128.00;-1.00;-1.00;100321;1281;1004463;-31
2023/12/22 09:33:04;;;;;;;4.60;1.20;;;;;;;-128.00;-1.00;-1.00;100263;1282;1004455;-32
2023/12/22 09:35:29;;;;;;;;;;;;;;;-128.00;-1.00;-1.00;100208;1281;1003911;-32
2023/12/22 09:37:55;;;;;;;4.70;1.10;;;;;;;-128.00;-1.00;-1.00;100232;1283;1004760;-33
2023/12/22 09:40:21;;;;;;;4.00;0.90;;;;;;;-128.00;-1.00;-1.00;100165;1282;1047212;-32
2023/12/22 09:42:47;;;;;;;12.30;3.10;;;;;;;-128.00;-1.00;-1.00;100193;1282;1005182;-33
2023/12/22 09:45:13;;;;;;;7.50;1.90;;;;;;;-128.00;-1.00;-1.00;100204;1283;1005028;-33
2023/12/22 09:47:41;;;;;;;7.70;1.80;;;;;;;-128.00;-1.00;-1.00;100168;1283;1004437;-29
2023/12/22 09:50:07;;;;;;;7.30;1.30;;;;;;;-128.00;-1.00;-1.00;100233;1285;1046069;-32
2023/12/22 09:52:33;;;;;;;8.10;1.70;;;;;;;-128.00;-1.00;-1.00;100232;1283;1004503;-32
2023/12/22 09:54:58;;;;;;;3.30;1.60;;;;;;;-128.00;-1.00;-1.00;100402;1285;1004139;-33
2023/12/22 09:57:24;;;;;;;11.00;3.50;;;;;;;-128.00;-1.00;-1.00;100264;1283;1003560;-32
2023/12/22 09:59:52;;;;;;;6.40;1.10;;;;;;;-128.00;-1.00;-1.00;100243;1282;1004576;-32
2023/12/22 10:02:18;;;;;;;6.40;1.90;;;;;;;-128.00;-1.00;-1.00;100377;1285;1004439;-31
2023/12/22 10:04:43;;;;;;;;;;;;;;;-128.00;-1.00;-1.00;100137;1282;1004662;-31
2023/12/22 10:07:09;;;;;;;7.60;3.40;;;;;;;-128.00;-1.00;-1.00;100234;1282;1005451;-32
2023/12/22 10:09:35;;;;;;;5.10;2.20;;;;;;;-128.00;-1.00;-1.00;100077;1283;1059839;-31
2023/12/22 10:12:01;;;;;;;8.20;2.60;;;;;;;-128.00;-1.00;-1.00;100236;1283;1004745;-31
2023/12/22 10:14:26;;;;;;;4.20;1.70;;;;;;;-128.00;-1.00;-1.00;100219;1283;1004621;-32
2023/12/22 10:16:52;;;;;;;5.30;1.20;;;;;;;-128.00;-1.00;-1.00;100310;1283;1004173;-31
2023/12/22 10:19:20;;;;;;;10.40;2.80;;;;;;;-128.00;-1.00;-1.00;100093;1283;1004919;-31
2023/12/22 10:21:45;;;;;;;10.10;3.00;;;;;;;-128.00;-1.00;-1.00;100172;1285;1005050;-32
2023/12/22 10:24:35;;;;;;;5.40;1.90;;;;;;;-128.00;-1.00;-1.00;100198;1282;1003590;-33
2023/12/22 10:27:00;;;;;;;2.90;0.70;;;;;;;-128.00;-1.00;-1.00;100243;1285;1046114;-34
2023/12/22 10:29:26;;;;;;;3.30;0.90;;;;;;;-128.00;-1.00;-1.00;100254;1285;1004566;-33
2023/12/22 10:31:52;;;;;;;9.70;5.40;;;;;;;-128.00;-1.00;-1.00;100165;1283;1004759;-32
2023/12/22 10:34:17;;;;;;;12.10;1.50;;;;;;;-128.00;-1.00;-1.00;100204;1283;1059498;-32
2023/12/22 10:36:43;;;;;;;5.70;1.20;;;;;;;-128.00;-1.00;-1.00;100247;1283;1004848;-33
2023/12/22 10:39:08;;;;;;;21.10;8.00;;;;;;;-128.00;-1.00;-1.00;100246;1285;1003552;-33
2023/12/22 10:41:34;;;;;;;14.60;2.20;;;;;;;-128.00;-1.00;-1.00;100093;1285;1062311;-31
2023/12/22 10:44:00;;;;;;;4.40;1.70;;;;;;;-128.00;-1.00;-1.00;100280;1283;1004794;-33
2023/12/22 10:46:25;;;;;;;13.20;3.90;;;;;;;-128.00;-1.00;-1.00;100270;1283;1004955;-33
2023/12/22 10:48:53;;;;;;;7.90;1.90;;;;;;;-128.00;-1.00;-1.00;100305;1285;1005135;-31
2023/12/22 10:51:19;;;;;;;8.00;4.40;;;;;;;-128.00;-1.00;-1.00;100432;1283;1004391;-33
2023/12/22 10:53:44;;;;;;;8.40;3.20;;;;;;;-128.00;-1.00;-1.00;100300;1283;1004385;-32
2023/12/22 10:56:11;;;;;;;13.80;1.50;;;;;;;-128.00;-1.00;-1.00;100195;1283;1004477;-32
2023/12/22 10:58:38;;;;;;;6.20;1.10;;;;;;;-128.00;-1.00;-1.00;100313;1281;1004449;-30
2023/12/22 11:01:06;;;;;;;14.00;5.50;;;;;;;-128.00;-1.00;-1.00;100252;1285;1004460;-32
2023/12/22 11:03:31;;;;;;;4.20;1.40;;;;;;;-128.00;-1.00;-1.00;100355;1283;1004779;-32
2023/12/22 11:05:57;;;;;;;5.70;1.50;;;;;;;-128.00;-1.00;-1.00;100345;1282;1005060;-32
2023/12/22 11:08:23;;;;;;;6.10;1.70;;;;;;;-128.00;-1.00;-1.00;100236;1283;1003997;-36
2023/12/22 11:10:51;;;;;;;9.80;4.10;;;;;;;-128.00;-1.00;-1.00;100361;1282;1014848;-31
2023/12/22 11:13:16;;;;;;;10.10;1.70;;;;;;;-128.00;-1.00;-1.00;100285;1285;1004677;-32
2023/12/22 11:15:42;;;;;;;7.00;1.40;;;;;;;-128.00;-1.00;-1.00;100265;1285;1004725;-30
2023/12/22 11:18:08;;;;;;;11.10;2.50;;;;;;;-128.00;-1.00;-1.00;100197;1283;1058035;-33
2023/12/22 11:20:34;;;;;;;7.00;1.60;;;;;;;-128.00;-1.00;-1.00;100240;1285;1004958;-31
2023/12/22 11:23:00;;;;;;;;;;;;;;;-128.00;-1.00;-1.00;100276;1282;1005111;-32
2023/12/22 11:25:26;;;;;;;11.40;3.40;;;;;;;-128.00;-1.00;-1.00;100169;1285;1004212;-32
2023/12/22 11:27:53;;;;;;;17.30;2.50;;;;;;;-128.00;-1.00;-1.00;100239;1283;1004409;-36
2023/12/22 11:30:20;;;;;;;4.70;1.50;;;;;;;-128.00;-1.00;-1.00;100432;1283;1055554;-31
2023/12/22 11:32:45;;;;;;;9.20;2.50;;;;;;;-128.00;-1.00;-1.00;100324;1285;1004690;-30
2023/12/22 11:35:11;;;;;;;8.10;1.90;;;;;;;-128.00;-1.00;-1.00;100301;1285;1004651;-31
2023/12/22 11:37:37;;;;;;;5.80;1.50;;;;;;;-128.00;-1.00;-1.00;100409;1285;1004347;-32
2023/12/22 11:40:03;;;;;;;10.60;1.90;;;;;;;-128.00;-1.00;-1.00;100219;1282;1004034;-30
2023/12/22 11:42:32;;;;;;;5.60;1.70;;;;;;;-128.00;-1.00;-1.00;100224;1284;1004997;-31
2023/12/22 11:44:58;;;;;;;8.10;1.90;;;;;;;-128.00;-1.00;-1.00;100242;1285;1004210;-30
2023/12/22 11:47:24;;;;;;;5.60;1.00;;;;;;;-128.00;-1.00;-1.00;100265;1285;1004609;-32
2023/12/22 11:49:50;;;;;;;6.90;1.80;;;;;;;-128.00;-1.00;-1.00;100274;1283;1005767;-32
2023/12/22 11:52:17;;;;;;;7.10;1.60;;;;;;;-128.00;-1.00;-1.00;100318;1284;1003923;-37
2023/12/22 11:54:47;;;;;;;6.10;1.50;;;;;;;-128.00;-1.00;-1.00;100261;1282;1057515;-32